Lin-Mark Sports

4th Annual The Kathleen M. Rotz Lung Cancer Research Fund 5K-2018

Saturday,Sep 29, 2018
10 Stable Mill Road
Richboro PA

 Scroll Down To Use The Searchable Results Database and View Video 

Click HERE to View All Individual Winners

Click HERE To View Results In Chrono Live With Individual Video

 

Walkers/Runners Clock Time Up To 1 HR.

Clock Time Over 1 HR.

 Results Issue? Click HERE

Results

Race Bib# O'ALLPLC AgePlc Division GenPlc Gender First Name Last Name Age Time Chip Time Pace
5K 776 1 1 M20-29 1 M JOHN ROBB 25 27:21 27:19 8:50
5K 751 2 2 M20-29 2 M DAVE DESIDERIO 29 28:55 28:50 9:20
5K 763 3 1 F30-39 1 F NICOLE JENET 30 29:00 28:55 9:22
5K 792 4 1 F20-29 2 F JAMIE DEPETRIS 26 29:18 29:15 9:27
5K 749 5 1 F40-49 3 F JENN CRONIN 41 30:18 30:17 9:47
5K 762 6 1 F50-59 4 F DIANE JENET 55 31:01 30:55 10:01
5K 787 7 1 M60-69 3 M BILL YANDLE 65 31:06 31:06 10:02
5K 795 8 1 M50-59 4 M MITSUO ORTATY 55 31:07 31:02 10:02
5K 797 9 2 F30-39 5 F JACKIE HARTZELL 34 31:52 31:43 10:17
5K 791 10 1 M30-39 5 M CHRIS HANSON 31 32:31 32:30 10:30
5K 761 11 2 M50-59 6 M MICHAEL HOGAN 51 32:42 32:38 10:33
5K 788 12 3 M20-29 7 M HERB GRESS 25 32:49 32:46 10:35
5K 768 13 2 F50-59 6 F SHARON MARIANO 57 32:51 32:49 10:36
5K 773 14 3 F30-39 7 F LAURA PAOLINI 33 32:52 32:49 10:36
5K 742 15 2 M60-69 8 M DAVID BRANT 65 33:13 33:10 10:43
5K 755 16 4 F30-39 8 F BRIANNE GERHARD 35 33:23 33:22 10:46
5K 745 17 1 F19&UNDER 9 F JULIA CESARONE 14 33:37 33:35 10:51
5K 753 18 2 M30-39 9 M JOE FEDELE 33 34:22 34:18 11:06
5K 760 19 3 F50-59 10 F LAURA HOGAN 50 36:19 36:09 11:43
5K 741 20 4 F50-59 11 F MICHELLE BAUER 50 36:40 36:33 11:50
5K 740 21 3 M50-59 10 M CHRISTOPHER BAUER 51 36:40 36:31 11:50
5K 794 22 2 F20-29 12 F BRITTANY CASEY 29 37:14 37:06 12:01
5K 793 23 4 M20-29 11 M SEAN CASEY 29 37:15 37:07 12:01
5K 739 24 2 F19&UNDER 13 F JANET AMONS 14 38:43 38:41 12:30
5K 750 25 5 F30-39 14 F MEGHAN DAVIDSON 34 38:57 38:50 12:34
5K 783 26 3 M60-69 12 M PAUL SHIVE 67 41:24 41:20 13:22
5K 796 27 1 M19UNDER 13 M AVERY RICE 11 43:14 43:09 13:57
5K 790 28 2 F40-49 15 F LINDA RICE 48 43:14 43:09 13:57
5K 789 29 3 M30-39 14 M JASON BOWE 36 46:12 46:03 14:55
5K 786 30 5 F50-59 16 F TERRI WELSH 52 1:01:52 1:01:31 19:58